• Join FlightAware (Why Join?)
  • Login
  • US Flag 
02:50AM EDT


 

Airport Tracker/Info


-or-


 

Live Flight TrackerFlight Track Log ✈ UAL6136 ✈ 01-May-2013 ✈ KORD - KCHS

Flight Track Log - Related Links

Times and Time Zones

All times are in EDT time to prevent confusion due to time zone crossing. See the UAL6136 flight status page for this flight to view local times or setup timezone preferences in your user account.

Time Position Orientation Groundspeed Altitude Reporting Facility
EDT Latitude Longitude Course Direction KTS MPH feet Rate Location/Type
12:31PM 41.9000 -87.9000 169° South 184 212 3,500  Level Chicago TRACON
12:32PM 41.8156 -87.8819 171° South 212 244 5,600 1,800 Climbing Chicago Center
12:33PM 41.7542 -87.8314 148° Southeast 252 290 8,000 2,220 Climbing Chicago Center
12:34PM 41.6942 -87.7850 150° Southeast 251 289 10,200 1,980 Climbing Chicago Center
12:35PM 41.6311 -87.7358 150° Southeast 258 297 12,100 1,620 Climbing Chicago Center
12:36PM 41.4531 -87.3768 169° South  Level Estimated
12:36PM 41.5650 -87.6828 149° Southeast 273 314 13,600  Level Chicago Center
12:37PM 41.4958 -87.6283 149° Southeast 285 328 15,000 1,260 Climbing Chicago Center
12:38PM 41.4025 -87.5689 154° Southeast 317 365 16,300 1,080 Climbing Chicago Center
12:40PM 41.3106 -87.5522 172° South 331 381 17,300 780 Climbing Chicago Center
12:41PM 41.2156 -87.5367 173° South 341 392 18,000 780 Climbing Chicago Center
12:42PM 41.1167 -87.5106 169° South 359 413 19,000 960 Climbing Chicago Center
12:43PM 41.0175 -87.4844 169° South 364 419 20,000 960 Climbing Chicago Center
12:44PM 40.9136 -87.4553 168° South 379 436 21,000 960 Climbing Chicago Center
12:45PM 40.7853 -87.4239 170° South 389 448 22,100 960 Climbing Chicago Center
12:46PM 40.6803 -87.3892 166° South 392 451 23,100 900 Climbing Chicago Center
12:47PM 40.5842 -87.3217 152° Southeast 392 451 24,000 900 Climbing Chicago Center
12:48PM 40.4881 -87.2542 152° Southeast 394 453 25,000 1,200 Climbing Chicago Center
12:49PM 40.3892 -87.1842 152° Southeast 388 447 26,500 1,380 Climbing Chicago Center
12:50PM 40.2967 -87.1186 152° Southeast 375 432 27,900 1,500 Climbing Chicago Center
12:51PM 40.1925 -87.0456 152° Southeast 364 419 29,600 1,500 Climbing Chicago Center
12:52PM 40.1183 -86.9939 152° Southeast 355 409 30,800 1,260 Climbing Indianapolis Center
12:53PM 40.0331 -86.9311 151° Southeast 350 403 32,000 1,020 Climbing Indianapolis Center
12:54PM 39.9594 -86.8500 140° Southeast 346 398 33,000 960 Climbing Indianapolis Center
12:55PM 39.8839 -86.7669 140° Southeast 352 405 34,000 480 Climbing Indianapolis Center
12:56PM 39.8058 -86.6828 140° Southeast 363 418 34,000 360 Level Indianapolis Center
12:57PM 39.7097 -86.5783 140° Southeast 384 442 34,800 480 Climbing Indianapolis Center
12:58PM 39.6267 -86.4894 140° Southeast 391 450 35,000 60 Climbing Indianapolis Center
12:59PM 39.5400 -86.3950 140° Southeast 407 468 35,000  Level Indianapolis Center
01:00PM 39.4486 -86.2978 141° Southeast 424 488 35,000  Level Indianapolis Center
01:01PM 39.3542 -86.1964 140° Southeast 436 502 35,000  Level Indianapolis Center
01:02PM 39.2425 -86.0778 141° Southeast 444 511 35,000  Level Indianapolis Center
01:03PM 39.1453 -85.9750 141° Southeast 449 517 35,000  Level Indianapolis Center
01:04PM 39.0475 -85.8714 141° Southeast 451 519 35,000  Level Indianapolis Center
01:05PM 38.9508 -85.7692 141° Southeast 448 516 35,000  Level Indianapolis Center
01:07PM 38.8405 -85.6482 139° Southeast  Level FlightAware Approximate
01:07PM 38.7586 -85.5681 139° Southeast 444 511 35,000  Level Indianapolis Center
01:08PM 38.6472 -85.4525 141° Southeast 439 505 35,000  Level Indianapolis Center
01:09PM 38.5656 -85.3667 141° Southeast 432 497 35,000  Level Indianapolis Center
01:10PM 38.4686 -85.2675 141° Southeast 440 506 35,000  Level Indianapolis Center
01:11PM 38.3536 -85.1500 141° Southeast 441 507 35,000  Level Indianapolis Center
01:12PM 38.2592 -85.0506 140° Southeast 441 507 35,000  Level Indianapolis Center
01:13PM 38.1622 -84.9539 142° Southeast 441 507 35,000  Level Indianapolis Center
01:14PM 38.0686 -84.8547 140° Southeast 438 504 35,000  Level Indianapolis Center
01:16PM 37.9711 -84.7586 142° Southeast 442 509 35,000  Level Indianapolis Center
01:17PM 37.8586 -84.6450 141° Southeast 441 507 35,000  Level Indianapolis Center
01:18PM 37.7628 -84.5475 141° Southeast 441 507 35,000  Level Indianapolis Center
01:19PM 37.6667 -84.4519 142° Southeast 439 505 35,000  Level Indianapolis Center
01:20PM 37.5700 -84.3556 142° Southeast 443 510 35,000  Level Indianapolis Center
01:21PM 37.4731 -84.2586 142° Southeast 443 510 35,000  Level Indianapolis Center
01:22PM 37.3767 -84.1619 141° Southeast 444 511 35,000  Level Indianapolis Center
01:23PM 37.2628 -84.0497 142° Southeast 445 512 35,000  Level Indianapolis Center
01:24PM 37.1678 -83.9506 140° Southeast 444 511 35,000  Level Indianapolis Center
01:25PM 37.0925 -83.8225 126° Southeast 455 524 35,000  Level Indianapolis Center
01:26PM 37.0153 -83.6961 127° Southeast 458 527 35,000  Level Indianapolis Center
01:27PM 36.9386 -83.5692 127° Southeast 457 526 35,000  Level Indianapolis Center
01:28PM 36.8606 -83.4439 128° Southeast 459 528 35,000  Level Indianapolis Center
01:29PM 36.7694 -83.2950 127° Southeast 464 534 35,000  Level Indianapolis Center
01:30PM 36.6839 -83.1803 133° Southeast 461 531 35,000  Level Indianapolis Center
01:31PM 36.5786 -83.0961 147° Southeast 454 522 35,000  Level Indianapolis Center
01:32PM 36.4711 -83.0164 149° Southeast 457 526 35,000  Level Atlanta Center
01:33PM 36.3661 -82.9353 148° Southeast 456 525 35,000  Level Atlanta Center
01:34PM 36.2633 -82.8542 148° Southeast 446 513 35,000  Level Atlanta Center
01:35PM 36.1456 -82.7658 149° Southeast 446 513 35,000  Level Atlanta Center
01:36PM 36.0383 -82.6828 148° Southeast 451 519 35,000  Level Atlanta Center
01:37PM 35.9331 -82.6025 148° Southeast 451 519 35,000  Level Atlanta Center
01:38PM 35.8256 -82.5200 148° Southeast 451 519 35,000  Level Atlanta Center
01:39PM 35.7183 -82.4400 149° Southeast 451 519 35,000  Level Atlanta Center
01:40PM 35.6233 -82.3706 149° Southeast 444 511 35,000  Level Atlanta Center
01:41PM 35.5053 -82.2811 148° Southeast 449 517 35,000  Level Atlanta Center
01:42PM 35.3958 -82.2019 149° Southeast 455 524 35,000  Level Atlanta Center
01:43PM 35.2881 -82.1203 148° Southeast 455 524 35,000  Level Atlanta Center
01:44PM 35.1783 -82.0389 149° Southeast 455 524 35,000 -240 Level Atlanta Center
01:45PM 35.0683 -81.9578 149° Southeast 455 524 34,600 -540 Descending Atlanta Center
01:46PM 34.9606 -81.8794 149° Southeast 450 518 34,000 -900 Descending Atlanta Center
01:47PM 34.8508 -81.8014 150° Southeast 450 518 32,900 -1,380 Descending Atlanta Center
01:48PM 34.7450 -81.7233 149° Southeast 448 516 31,300 -1,680 Descending Atlanta Center
01:50PM 34.5431 -81.5792 150° Southeast 451 519 27,900 -1,440 Descending Jacksonville Center
01:51PM 34.4339 -81.5028 150° Southeast 451 519 27,000 -480 Descending Jacksonville Center
01:52PM 34.3286 -81.4292 150° Southeast 445 512 27,000 -480 Level Jacksonville Center
01:53PM 34.2256 -81.3581 150° Southeast 445 512 26,100 -1,140 Descending Jacksonville Center
01:54PM 34.1183 -81.2822 150° Southeast 445 512 24,800 -1,260 Descending Jacksonville Center
01:55PM 34.0131 -81.2114 151° Southeast 445 512 23,600 -1,080 Descending Jacksonville Center
01:56PM 33.9078 -81.1358 149° Southeast 445 512 22,700 -840 Descending Jacksonville Center
01:57PM 33.8044 -81.0656 151° Southeast 439 505 22,000 -360 Descending Jacksonville Center
01:58PM 33.7033 -80.9978 151° Southeast 433 498 22,000 -1,320 Level Jacksonville Center
01:59PM 33.6019 -80.9275 150° Southeast 423 487 19,400 -2,400 Descending Jacksonville Center
02:00PM 33.5092 -80.8600 149° Southeast 417 480 17,200 -1,380 Descending Jacksonville Center
02:01PM 33.4086 -80.8397 170° South 377 434 16,700 -900 Descending Jacksonville Center
02:02PM 33.3061 -80.8247 173° South 377 434 15,400 -1,560 Descending Jacksonville Center
02:03PM 33.2419 -80.7369 131° Southeast 336 387 13,600 -1,800 Descending Jacksonville Center
02:04PM 33.1922 -80.6364 121° Southeast 336 387 11,900 -1,320 Descending Jacksonville Center
02:05PM 33.1489 -80.5456 120° Southeast 329 379 11,000 -480 Descending Jacksonville Center
02:06PM 33.1014 -80.4575 123° Southeast 319 367 11,000 -600 Level Jacksonville Center
02:07PM 33.0378 -80.4072 146° Southeast 283 326 9,800 -1,200 Descending Jacksonville Center
02:08PM 32.9619 -80.3747 160° South 283 326 8,600 -1,020 Descending Jacksonville Center
02:09PM 32.8878 -80.3272 152° Southeast 276 318 7,800 1,200 Descending Jacksonville Center
02:10PM 32.8203 -80.2872 154° Southeast 276 318 11,000 1,560 Climbing Jacksonville Center
02:11PM 32.7506 -80.2447 153° Southeast 276 318 11,000  Level Jacksonville Center
02:13PM 32.8501 -80.0834 52° Northeast  Level FlightAware Approximate
02:20PM 32.8833 -80.0333 52° Northeast  Level FlightAware Approximate
02:21PM 32.8986 -80.0405 52° Northeast  Level Estimated
02:22PM 32.8986 -80.0405 52° Northeast  Level Estimated
02:23PM 32.8986 -80.0405 52° Northeast  Level Estimated
02:24PM 32.8986 -80.0405 52° Northeast  Level Estimated
02:25PM 32.8986 -80.0405 52° Northeast  Level Estimated
02:26PM 32.8986 -80.0405 52° Northeast  Level Estimated
02:27PM 32.8986 -80.0405 52° Northeast  Level Estimated